Doerun, GA

6:26 AM EST on December 22, 2014 (GMT -0500)
City of Moultrie Service Center | Change Station
CLOSE
Current Station
Personal Weather Station
Location: Moultrie, GA
Elevation: 299 ft
Nearby Weather Stations
Active Advisory: Flash Flood Watch

Elev 299 ft 31.19 °N, 83.79 °W | Updated 5 minutes ago

Overcast
Overcast
50.5 °F
Feels Like 50.5 °F
N
0.0
Wind Variable Wind from NNE
Gusts 1.0 mph

Today
High -- | Low -- °F
--% Chance of Precip.
Yesterday
High -- | Low -- °F
Precip. -- in
7:30 AM 5:37 PM
New Moon, 0% visible
Pressure 29.99 in
Visibility 1.5 miles
Clouds Overcast 100 ft
Dew Point 50 °F
Humidity 98%
Rainfall 0.00 in
Snow Depth Not available.
UV 0 out of 12
Pollen .30 out of 12
Air Quality Not available.
Flu Activity Not available.
METAR KMGR 221115Z AUTO 05003KT 1 1/2SM -RA OVC001 10/10 A2999 RMK AO2

More Conditions Fewer Conditions

Pressure 29.99 in
Visibility 1.5 miles
Clouds Overcast 100 ft
Dew Point 50 °F
Humidity 98%
Rainfall 0.00 in
Snow Depth Not available.
UV 0 out of 12
Pollen .30 out of 12
Air Quality Not available.
Flu Activity Not available.
METAR KMGR 221115Z AUTO 05003KT 1 1/2SM -RA OVC001 10/10 A2999 RMK AO2

More Conditions Fewer Conditions

10-Day Weather Forecast

Almanac

Astronomy

Dec. 22, 2014 Rise Set
Actual Time
Civil Twilight
Nautical Twilight
Astronomical Twilight
Moon
Length of Visible Light
Length of Day
Tomorrow will be .
, % of the Moon is Illuminated

Today's Extremes

State Highs State Lows

Community

WunderPhotos

Upload Photos

1,779,587 photos uploaded!

WunderBlogs® & News

Nearby

Air Quality

  Air Quality AQ Index Pollutant
Not available.

Snow Depth

Station Depth Elevation

Earthquake Activity

City Distance Mag. Time & Date
Minimum magnitude displayed is 2.5.

Coastal Water Temperatures

Place Temperature

Nearby Weather Stations